Ana Sayfa
METAR-TAF:

METAR-TAF

Havaalanları :

Mosjøen, Norveç

Enlem: 65-48N, Boylam: 013-08E, yükseklik: 70 m

Güncel hava durumu gözlemi

Rapor saat 21:50 UTC de 5 saat ve 59 dakika önce yapıldı.
Rüzgar güney/güneybatıdan 5 kt, güney/güneydoğu ve batı arasında değişken
Sıcaklık -4°C
Nem 54%
Basınç 994 hPa
Görüş mesafesi 10 km veya daha fazla
3500 ft yükseklikte az bulutlu
12000 ft yükseklikte parçalı bulutlu

METAR: ENMS 272150Z 21005KT 160V260 9999 FEW035 SCT120 M04/M12 Q0994 RMK WIND 412FT 17007KT 140V240

Saat: 04:49 (03:49 UTC)


TAF: eksik

4.000'den fazla havaalanı için hava durumu gözlemleri ve tahminleri (METAR ve TAF raporları).

Kullanılabilir istasyonlar harita üzerinde sarı ve kırmızı noktalarla gösterilir.

İstasyonun adını görmek için fareyi noktanın üzerinde gezdirin.

Sonrasında hava gözlem ve tahminlerini görmek için tıklayın.

Haritayı değiştirmek için: yaklaştırmak için siyah artı işaretli yeşil düğmeye ve uzaklaştırmak için de eksi işaretli düğmeye hızla tıklayın; bitişik haritalar için yeşil okları kullanın.


METAR-TAF: